Kezdőlap
METAR-TAF:

METAR-TAF

Repülőterek :

Saguache Municipal Airport

Saguache, Colorado, Amerikai Egyesült Államok

földrajzi szélesség: 38-05-50N, földrajzi hosszúság: 106-10-07W, magasság: 2385 m

Jelenlegi meteorológiai megfigyelések

A jelentés 12 perccel ezelõtt készült, 01:11 UTC
Nyugati szél 12 kt
Hőmérséklet 10°C
Páratartalom 21%
Légköri nyomás 1012 hPa
Látótávolság: 16.1 km
Derült ég

METAR: K04V 050111Z AUTO 26012KT 10SM CLR 10/M11 A2989 RMK AO2

Idő: 19:23 (01:23 UTC)


TAF: hiányzik

Meteorológiai megfigyelések és előrejelzések több, mint 4000 repülőtéren (METAR és TAF jelentéseket).

A térképen piros és sárga pontok jelzik az elérhető meteorológiai állomásokat.

Mozgassa az egeret a pont fölött, hogy megjelenjen az állomás neve.

Azután kattintson az időjárási megfigyelések és előrejelzések megtekintéséhez.

A térkép megváltoztatása: kattintson a fekete keresztel jelölt zöld gombra ráközelítéshez, a vonallal jelölt zöld gombra távolításhoz, vagy a zöld nyilakra a szomszédos térképek eléréséhez.


METAR-TAF: